RYR80LC LIPE-LKPR
Flight info
| Callsign | RYR80LC |
|---|---|
| Flight time | 1h 1m |
| Altitude | 34000 |
| Route | LUMAV L12 VIC DCT BRENO M726 KOGOL N871 NENUM Z39 DOLUP DCT APRAQ |
| Aircraft | B738/M-SDE2E3FGHIRWXY/LB1 |
Departure
| Time | 2026-05-06 18:56 |
|---|---|
| Airport | Bologna Guglielmo Marconi Airport (LIPE) |
Arrival
| Time | 2026-05-06 19:57 |
|---|---|
| Airport | Václav Havel Airport Prague (LKPR) |
| Time | Latitude | Longitude | Altitude | Speed | Heading |
|---|---|---|---|---|---|
| 2026-05-06 18:31 | 44.53014 | 11.29486 | 130 ft | 0 kts | 207° |
| 2026-05-06 18:43 | 44.53032 | 11.29498 | 126 ft | 3 kts | 208° |
| 2026-05-06 18:43 | 44.53047 | 11.29510 | 125 ft | 3 kts | 222° |
| 2026-05-06 18:43 | 44.53055 | 11.29529 | 124 ft | 3 kts | 279° |
| 2026-05-06 18:44 | 44.53049 | 11.29554 | 126 ft | 3 kts | 296° |
| 2026-05-06 18:44 | 44.53039 | 11.29581 | 126 ft | 3 kts | 297° |
| 2026-05-06 18:44 | 44.53030 | 11.29607 | 124 ft | 3 kts | 297° |
| 2026-05-06 18:44 | 44.53023 | 11.29625 | 124 ft | 1 kts | 297° |
| 2026-05-06 18:48 | 44.53030 | 11.29607 | 124 ft | 6 kts | 297° |
| 2026-05-06 18:48 | 44.53054 | 11.29541 | 124 ft | 8 kts | 297° |
| 2026-05-06 18:48 | 44.53079 | 11.29474 | 127 ft | 8 kts | 297° |
| 2026-05-06 18:48 | 44.53103 | 11.29407 | 129 ft | 8 kts | 296° |
| 2026-05-06 18:49 | 44.53127 | 11.29339 | 127 ft | 9 kts | 296° |
| 2026-05-06 18:49 | 44.53157 | 11.29254 | 127 ft | 11 kts | 296° |
| 2026-05-06 18:49 | 44.53195 | 11.29149 | 126 ft | 13 kts | 297° |
| 2026-05-06 18:49 | 44.53240 | 11.29024 | 128 ft | 15 kts | 296° |
| 2026-05-06 18:50 | 44.53291 | 11.28880 | 128 ft | 17 kts | 296° |
| 2026-05-06 18:50 | 44.53348 | 11.28721 | 129 ft | 19 kts | 296° |
| 2026-05-06 18:50 | 44.53411 | 11.28546 | 126 ft | 21 kts | 297° |
| 2026-05-06 18:50 | 44.53476 | 11.28369 | 127 ft | 18 kts | 296° |
| 2026-05-06 18:51 | 44.53495 | 11.28318 | 127 ft | 0 kts | 296° |
| 2026-05-06 18:51 | 44.53495 | 11.28316 | 127 ft | 2 kts | 296° |
| 2026-05-06 18:51 | 44.53521 | 11.28287 | 125 ft | 4 kts | 354° |
| 2026-05-06 18:51 | 44.53555 | 11.28277 | 129 ft | 6 kts | 325° |
| 2026-05-06 18:52 | 44.53578 | 11.28231 | 129 ft | 6 kts | 296° |
| 2026-05-06 18:52 | 44.53596 | 11.28180 | 125 ft | 6 kts | 296° |
| 2026-05-06 18:52 | 44.53621 | 11.28106 | 125 ft | 14 kts | 295° |
| 2026-05-06 18:52 | 44.53679 | 11.27942 | 129 ft | 21 kts | 296° |
| 2026-05-06 18:53 | 44.53743 | 11.27761 | 127 ft | 20 kts | 296° |
| 2026-05-06 18:53 | 44.53806 | 11.27586 | 125 ft | 20 kts | 297° |
| 2026-05-06 18:53 | 44.53865 | 11.27425 | 128 ft | 4 kts | 297° |
| 2026-05-06 18:53 | 44.53868 | 11.27416 | 127 ft | 0 kts | 297° |
| 2026-05-06 18:54 | 44.53869 | 11.27415 | 127 ft | 1 kts | 297° |
| 2026-05-06 18:54 | 44.53895 | 11.27351 | 127 ft | 15 kts | 307° |
| 2026-05-06 18:54 | 44.53979 | 11.27265 | 127 ft | 15 kts | 327° |
| 2026-05-06 18:55 | 44.54069 | 11.27215 | 126 ft | 14 kts | 13° |
| 2026-05-06 18:55 | 44.54116 | 11.27253 | 128 ft | 1 kts | 50° |
| 2026-05-06 18:55 | 44.54098 | 11.27336 | 125 ft | 36 kts | 115° |
| 2026-05-06 18:55 | 44.53818 | 11.28106 | 125 ft | 138 kts | 117° |
| 2026-05-06 18:56 | 44.53272 | 11.29639 | 392 ft | 201 kts | 117° |
| 2026-05-06 18:56 | 44.52706 | 11.31461 | 1458 ft | 216 kts | 103° |
| 2026-05-06 18:56 | 44.52923 | 11.33629 | 2400 ft | 230 kts | 66° |
| 2026-05-06 18:56 | 44.54023 | 11.35192 | 3016 ft | 227 kts | 20° |
| 2026-05-06 18:57 | 44.55522 | 11.35771 | 3690 ft | 225 kts | 10° |
| 2026-05-06 18:57 | 44.57049 | 11.36418 | 4317 ft | 233 kts | 17° |
| 2026-05-06 18:57 | 44.58559 | 11.37283 | 5105 ft | 234 kts | 21° |
| 2026-05-06 18:57 | 44.60033 | 11.38291 | 5842 ft | 238 kts | 24° |
| 2026-05-06 18:58 | 44.61511 | 11.39396 | 6523 ft | 242 kts | 26° |
| 2026-05-06 18:58 | 44.62994 | 11.40548 | 7203 ft | 244 kts | 27° |
| 2026-05-06 18:58 | 44.64488 | 11.41725 | 7923 ft | 248 kts | 27° |
| 2026-05-06 18:58 | 44.65959 | 11.43117 | 8398 ft | 273 kts | 38° |
| 2026-05-06 18:59 | 44.67503 | 11.44932 | 8757 ft | 301 kts | 40° |
| 2026-05-06 18:59 | 44.69109 | 11.46901 | 9584 ft | 310 kts | 41° |
| 2026-05-06 18:59 | 44.70755 | 11.48911 | 10401 ft | 320 kts | 41° |
| 2026-05-06 18:59 | 44.72522 | 11.51045 | 10685 ft | 348 kts | 40° |
| 2026-05-06 19:00 | 44.74403 | 11.53294 | 11288 ft | 361 kts | 40° |
| 2026-05-06 19:00 | 44.76334 | 11.55587 | 12133 ft | 367 kts | 40° |
| 2026-05-06 19:00 | 44.78303 | 11.57922 | 13017 ft | 372 kts | 40° |
| 2026-05-06 19:00 | 44.79619 | 11.59476 | 13578 ft | 376 kts | 39° |
| 2026-05-06 19:01 | 44.82752 | 11.61673 | 14555 ft | 381 kts | 10° |
| 2026-05-06 19:01 | 44.85378 | 11.62070 | 15395 ft | 381 kts | 0° |
| 2026-05-06 19:01 | 44.88043 | 11.62244 | 16184 ft | 384 kts | 359° |
| 2026-05-06 19:01 | 44.90726 | 11.62382 | 16928 ft | 389 kts | 358° |
| 2026-05-06 19:02 | 44.93455 | 11.62531 | 17700 ft | 394 kts | 358° |
| 2026-05-06 19:02 | 44.96218 | 11.62701 | 18432 ft | 399 kts | 359° |
| 2026-05-06 19:02 | 44.99009 | 11.62891 | 19090 ft | 403 kts | 359° |
| 2026-05-06 19:02 | 45.01824 | 11.63092 | 19755 ft | 407 kts | 359° |
| 2026-05-06 19:03 | 45.04671 | 11.63302 | 20405 ft | 411 kts | 358° |
| 2026-05-06 19:03 | 45.07545 | 11.63516 | 21043 ft | 416 kts | 358° |
| 2026-05-06 19:03 | 45.10415 | 11.63729 | 21664 ft | 420 kts | 358° |
| 2026-05-06 19:03 | 45.13346 | 11.63945 | 22294 ft | 424 kts | 358° |
| 2026-05-06 19:04 | 45.16311 | 11.64164 | 22898 ft | 428 kts | 358° |
| 2026-05-06 19:04 | 45.19299 | 11.64379 | 23484 ft | 432 kts | 358° |
| 2026-05-06 19:04 | 45.22323 | 11.64595 | 23977 ft | 437 kts | 358° |
| 2026-05-06 19:04 | 45.25373 | 11.64813 | 24440 ft | 441 kts | 358° |
| 2026-05-06 19:05 | 45.28441 | 11.65032 | 24900 ft | 446 kts | 358° |
| 2026-05-06 19:05 | 45.31579 | 11.65258 | 25371 ft | 450 kts | 358° |
| 2026-05-06 19:05 | 45.33664 | 11.65408 | 25690 ft | 453 kts | 358° |
| 2026-05-06 19:05 | 45.36792 | 11.65635 | 26143 ft | 457 kts | 358° |
| 2026-05-06 19:06 | 45.40015 | 11.65869 | 26585 ft | 461 kts | 358° |
| 2026-05-06 19:06 | 45.43227 | 11.66102 | 26998 ft | 465 kts | 358° |
| 2026-05-06 19:06 | 45.46481 | 11.66339 | 27421 ft | 469 kts | 357° |
| 2026-05-06 19:06 | 45.49760 | 11.66578 | 27832 ft | 473 kts | 357° |
| 2026-05-06 19:07 | 45.53049 | 11.66819 | 28247 ft | 476 kts | 357° |
| 2026-05-06 19:07 | 45.56382 | 11.67063 | 28652 ft | 480 kts | 357° |
| 2026-05-06 19:07 | 45.59732 | 11.67307 | 29023 ft | 484 kts | 357° |
| 2026-05-06 19:07 | 45.63111 | 11.67509 | 29380 ft | 486 kts | 354° |
| 2026-05-06 19:08 | 45.66469 | 11.67195 | 29757 ft | 482 kts | 345° |
| 2026-05-06 19:08 | 45.69744 | 11.66517 | 29934 ft | 485 kts | 344° |
| 2026-05-06 19:08 | 45.73085 | 11.65740 | 29936 ft | 486 kts | 343° |
| 2026-05-06 19:09 | 45.79710 | 11.64174 | 29943 ft | 480 kts | 343° |
| 2026-05-06 19:09 | 45.86298 | 11.62673 | 29972 ft | 483 kts | 344° |
| 2026-05-06 19:09 | 45.89653 | 11.61924 | 30187 ft | 486 kts | 344° |
| 2026-05-06 19:10 | 45.93001 | 11.61186 | 30565 ft | 487 kts | 344° |
| 2026-05-06 19:10 | 45.96343 | 11.60457 | 31043 ft | 485 kts | 344° |
| 2026-05-06 19:10 | 45.99674 | 11.59732 | 31531 ft | 483 kts | 344° |
| 2026-05-06 19:10 | 46.02979 | 11.59009 | 31934 ft | 480 kts | 344° |
| 2026-05-06 19:11 | 46.06286 | 11.58281 | 32340 ft | 481 kts | 344° |
| 2026-05-06 19:11 | 46.09608 | 11.57548 | 32672 ft | 482 kts | 344° |
| 2026-05-06 19:11 | 46.12895 | 11.56823 | 33166 ft | 480 kts | 344° |
| 2026-05-06 19:11 | 46.16221 | 11.56090 | 33686 ft | 477 kts | 344° |
| 2026-05-06 19:12 | 46.19503 | 11.55362 | 33933 ft | 480 kts | 344° |
| 2026-05-06 19:12 | 46.26074 | 11.53900 | 33898 ft | 478 kts | 344° |
| 2026-05-06 19:13 | 46.32611 | 11.52451 | 33913 ft | 474 kts | 344° |
| 2026-05-06 19:13 | 46.39113 | 11.50999 | 33902 ft | 473 kts | 344° |
| 2026-05-06 19:14 | 46.45653 | 11.49534 | 33893 ft | 473 kts | 344° |
| 2026-05-06 19:14 | 46.52109 | 11.48087 | 33881 ft | 472 kts | 344° |
| 2026-05-06 19:15 | 46.58606 | 11.46628 | 33895 ft | 472 kts | 344° |
| 2026-05-06 19:15 | 46.65111 | 11.45164 | 33891 ft | 473 kts | 344° |
| 2026-05-06 19:16 | 46.71620 | 11.43697 | 33892 ft | 474 kts | 344° |
| 2026-05-06 19:16 | 46.78177 | 11.42207 | 34322 ft | 477 kts | 345° |
| 2026-05-06 19:16 | 46.81448 | 11.41468 | 34770 ft | 473 kts | 345° |
| 2026-05-06 19:17 | 46.84664 | 11.40740 | 34841 ft | 474 kts | 346° |
| 2026-05-06 19:17 | 46.91206 | 11.39252 | 34872 ft | 472 kts | 346° |
| 2026-05-06 19:18 | 46.97742 | 11.38655 | 34850 ft | 480 kts | 1° |
| 2026-05-06 19:18 | 47.04341 | 11.40282 | 34838 ft | 481 kts | 7° |
| 2026-05-06 19:19 | 47.10924 | 11.42173 | 34833 ft | 481 kts | 7° |
| 2026-05-06 19:19 | 47.17469 | 11.43975 | 34837 ft | 477 kts | 6° |
| 2026-05-06 19:20 | 47.24035 | 11.45711 | 34828 ft | 480 kts | 6° |
| 2026-05-06 19:20 | 47.30621 | 11.47444 | 34848 ft | 482 kts | 6° |
| 2026-05-06 19:21 | 47.37192 | 11.49183 | 34824 ft | 483 kts | 6° |
| 2026-05-06 19:21 | 47.43794 | 11.50941 | 34832 ft | 481 kts | 7° |
| 2026-05-06 19:22 | 47.50146 | 11.54027 | 34837 ft | 483 kts | 27° |
| 2026-05-06 19:22 | 47.55490 | 11.59967 | 34857 ft | 482 kts | 44° |
| 2026-05-06 19:23 | 47.60329 | 11.66862 | 34832 ft | 482 kts | 44° |
| 2026-05-06 19:23 | 47.65161 | 11.73766 | 34845 ft | 483 kts | 44° |
| 2026-05-06 19:24 | 47.70058 | 11.80689 | 34872 ft | 490 kts | 43° |
| 2026-05-06 19:24 | 47.74988 | 11.87635 | 34859 ft | 486 kts | 44° |
| 2026-05-06 19:25 | 47.79890 | 11.94554 | 34867 ft | 485 kts | 44° |
| 2026-05-06 19:25 | 47.84753 | 12.01442 | 34858 ft | 484 kts | 44° |
| 2026-05-06 19:26 | 47.89626 | 12.08367 | 34873 ft | 485 kts | 44° |
| 2026-05-06 19:26 | 47.94511 | 12.15327 | 34879 ft | 487 kts | 44° |
| 2026-05-06 19:27 | 47.99421 | 12.22343 | 34824 ft | 488 kts | 44° |
| 2026-05-06 19:27 | 48.01871 | 12.25850 | 34558 ft | 486 kts | 44° |
| 2026-05-06 19:27 | 48.04307 | 12.29342 | 34324 ft | 484 kts | 44° |
| 2026-05-06 19:27 | 48.06747 | 12.32847 | 34096 ft | 486 kts | 44° |
| 2026-05-06 19:28 | 48.09166 | 12.36325 | 33936 ft | 489 kts | 44° |
| 2026-05-06 19:28 | 48.14059 | 12.43374 | 33879 ft | 487 kts | 44° |
| 2026-05-06 19:29 | 48.18969 | 12.50467 | 33875 ft | 487 kts | 44° |
| 2026-05-06 19:29 | 48.23877 | 12.57408 | 33869 ft | 488 kts | 38° |
| 2026-05-06 19:30 | 48.29376 | 12.63388 | 33864 ft | 488 kts | 33° |
| 2026-05-06 19:30 | 48.34946 | 12.69224 | 33847 ft | 488 kts | 34° |
| 2026-05-06 19:31 | 48.40477 | 12.75153 | 33842 ft | 487 kts | 34° |
| 2026-05-06 19:31 | 48.48754 | 12.84053 | 33830 ft | 488 kts | 34° |
| 2026-05-06 19:32 | 48.54289 | 12.90004 | 33807 ft | 488 kts | 34° |
| 2026-05-06 19:32 | 48.59825 | 12.95968 | 33800 ft | 489 kts | 34° |
| 2026-05-06 19:33 | 48.65329 | 13.01914 | 33779 ft | 481 kts | 34° |
| 2026-05-06 19:33 | 48.68002 | 13.04810 | 33765 ft | 465 kts | 34° |
| 2026-05-06 19:33 | 48.70574 | 13.07600 | 33709 ft | 453 kts | 34° |
| 2026-05-06 19:34 | 48.73137 | 13.10383 | 33311 ft | 448 kts | 34° |
| 2026-05-06 19:34 | 48.75685 | 13.13150 | 32723 ft | 448 kts | 35° |
| 2026-05-06 19:34 | 48.78219 | 13.15907 | 32178 ft | 447 kts | 35° |
| 2026-05-06 19:34 | 48.80730 | 13.18642 | 31647 ft | 446 kts | 35° |
| 2026-05-06 19:35 | 48.83250 | 13.21391 | 31113 ft | 442 kts | 35° |
| 2026-05-06 19:35 | 48.85692 | 13.24058 | 30577 ft | 435 kts | 35° |
| 2026-05-06 19:35 | 48.88161 | 13.26758 | 30057 ft | 428 kts | 35° |
| 2026-05-06 19:35 | 48.90552 | 13.29377 | 29492 ft | 420 kts | 36° |
| 2026-05-06 19:36 | 48.92912 | 13.31965 | 28891 ft | 413 kts | 35° |
| 2026-05-06 19:36 | 48.95206 | 13.34483 | 28316 ft | 409 kts | 35° |
| 2026-05-06 19:36 | 48.97510 | 13.37015 | 27765 ft | 408 kts | 35° |
| 2026-05-06 19:36 | 48.99813 | 13.39549 | 27193 ft | 406 kts | 35° |
| 2026-05-06 19:37 | 49.02101 | 13.42069 | 26662 ft | 404 kts | 35° |
| 2026-05-06 19:37 | 49.04375 | 13.44577 | 26123 ft | 402 kts | 35° |
| 2026-05-06 19:37 | 49.06634 | 13.47072 | 25597 ft | 400 kts | 35° |
| 2026-05-06 19:37 | 49.08121 | 13.48715 | 25259 ft | 398 kts | 35° |
| 2026-05-06 19:38 | 49.11083 | 13.51992 | 24589 ft | 395 kts | 35° |
| 2026-05-06 19:38 | 49.13307 | 13.54455 | 24077 ft | 392 kts | 35° |
| 2026-05-06 19:38 | 49.15501 | 13.56888 | 23593 ft | 387 kts | 35° |
| 2026-05-06 19:38 | 49.17667 | 13.59293 | 23057 ft | 383 kts | 36° |
| 2026-05-06 19:39 | 49.19814 | 13.61680 | 22483 ft | 380 kts | 36° |
| 2026-05-06 19:39 | 49.21943 | 13.64049 | 21932 ft | 377 kts | 36° |
| 2026-05-06 19:39 | 49.24056 | 13.66402 | 21386 ft | 373 kts | 36° |
| 2026-05-06 19:39 | 49.26142 | 13.68729 | 20835 ft | 369 kts | 36° |
| 2026-05-06 19:40 | 49.28177 | 13.71001 | 20310 ft | 364 kts | 36° |
| 2026-05-06 19:40 | 49.30218 | 13.73281 | 19784 ft | 360 kts | 36° |
| 2026-05-06 19:40 | 49.32201 | 13.75500 | 19284 ft | 356 kts | 36° |
| 2026-05-06 19:40 | 49.34217 | 13.77757 | 18773 ft | 352 kts | 36° |
| 2026-05-06 19:41 | 49.36174 | 13.79951 | 18284 ft | 350 kts | 36° |
| 2026-05-06 19:41 | 49.38160 | 13.82179 | 17795 ft | 353 kts | 36° |
| 2026-05-06 19:41 | 49.40152 | 13.84417 | 17316 ft | 353 kts | 36° |
| 2026-05-06 19:41 | 49.42126 | 13.86636 | 16847 ft | 354 kts | 36° |
| 2026-05-06 19:42 | 49.44097 | 13.88855 | 16387 ft | 354 kts | 36° |
| 2026-05-06 19:42 | 49.46081 | 13.91091 | 15922 ft | 353 kts | 36° |
| 2026-05-06 19:42 | 49.48063 | 13.93327 | 15477 ft | 353 kts | 36° |
| 2026-05-06 19:42 | 49.50045 | 13.95565 | 15031 ft | 352 kts | 36° |
| 2026-05-06 19:43 | 49.52021 | 13.97798 | 14594 ft | 352 kts | 36° |
| 2026-05-06 19:43 | 49.53973 | 14.00006 | 14139 ft | 343 kts | 36° |
| 2026-05-06 19:43 | 49.55873 | 14.02159 | 13710 ft | 334 kts | 36° |
| 2026-05-06 19:43 | 49.57823 | 14.04014 | 13223 ft | 326 kts | 21° |
| 2026-05-06 19:44 | 49.59974 | 14.04855 | 12811 ft | 314 kts | 1° |
| 2026-05-06 19:44 | 49.62120 | 14.04611 | 12785 ft | 310 kts | 347° |
| 2026-05-06 19:44 | 49.64237 | 14.03974 | 12766 ft | 307 kts | 345° |
| 2026-05-06 19:44 | 49.66294 | 14.03306 | 12763 ft | 306 kts | 345° |
| 2026-05-06 19:45 | 49.68374 | 14.02619 | 12765 ft | 307 kts | 345° |
| 2026-05-06 19:45 | 49.70464 | 14.01921 | 12763 ft | 307 kts | 345° |
| 2026-05-06 19:45 | 49.72558 | 14.01219 | 12764 ft | 308 kts | 345° |
| 2026-05-06 19:45 | 49.74653 | 14.00515 | 12768 ft | 308 kts | 345° |
| 2026-05-06 19:46 | 49.76734 | 13.99813 | 12760 ft | 307 kts | 345° |
| 2026-05-06 19:46 | 49.78832 | 13.99107 | 12725 ft | 307 kts | 345° |
| 2026-05-06 19:46 | 49.80938 | 13.98394 | 12369 ft | 313 kts | 345° |
| 2026-05-06 19:46 | 49.83057 | 13.97676 | 11950 ft | 309 kts | 345° |
| 2026-05-06 19:47 | 49.85121 | 13.96978 | 11519 ft | 303 kts | 345° |
| 2026-05-06 19:47 | 49.87189 | 13.96281 | 11097 ft | 299 kts | 345° |
| 2026-05-06 19:47 | 49.89207 | 13.95602 | 10670 ft | 296 kts | 345° |
| 2026-05-06 19:47 | 49.91194 | 13.94936 | 10385 ft | 291 kts | 345° |
| 2026-05-06 19:48 | 49.93156 | 13.94281 | 10238 ft | 286 kts | 345° |
| 2026-05-06 19:48 | 49.95132 | 13.93618 | 9940 ft | 295 kts | 345° |
| 2026-05-06 19:48 | 49.97162 | 13.92933 | 9617 ft | 301 kts | 345° |
| 2026-05-06 19:48 | 49.99208 | 13.92239 | 9252 ft | 300 kts | 345° |
| 2026-05-06 19:49 | 50.01226 | 13.91553 | 8978 ft | 296 kts | 345° |
| 2026-05-06 19:49 | 50.03212 | 13.90879 | 8802 ft | 283 kts | 345° |
| 2026-05-06 19:49 | 50.05090 | 13.90247 | 8624 ft | 271 kts | 345° |
| 2026-05-06 19:49 | 50.06912 | 13.89637 | 8366 ft | 265 kts | 345° |
| 2026-05-06 19:50 | 50.08698 | 13.89038 | 8106 ft | 263 kts | 345° |
| 2026-05-06 19:50 | 50.10486 | 13.88437 | 7822 ft | 265 kts | 345° |
| 2026-05-06 19:50 | 50.12285 | 13.87824 | 7464 ft | 265 kts | 345° |
| 2026-05-06 19:50 | 50.14092 | 13.87200 | 7008 ft | 265 kts | 345° |
| 2026-05-06 19:51 | 50.15895 | 13.86606 | 6570 ft | 265 kts | 351° |
| 2026-05-06 19:51 | 50.17727 | 13.86709 | 6129 ft | 266 kts | 13° |
| 2026-05-06 19:51 | 50.19378 | 13.87893 | 5922 ft | 255 kts | 37° |
| 2026-05-06 19:51 | 50.20673 | 13.89691 | 5689 ft | 247 kts | 44° |
| 2026-05-06 19:52 | 50.21853 | 13.91659 | 5243 ft | 247 kts | 56° |
| 2026-05-06 19:52 | 50.22506 | 13.94050 | 4859 ft | 240 kts | 80° |
| 2026-05-06 19:52 | 50.22552 | 13.96609 | 4460 ft | 232 kts | 93° |
| 2026-05-06 19:52 | 50.22422 | 13.99081 | 4068 ft | 224 kts | 100° |
| 2026-05-06 19:53 | 50.21863 | 14.01249 | 4012 ft | 211 kts | 120° |
| 2026-05-06 19:53 | 50.21096 | 14.03153 | 4017 ft | 211 kts | 125° |
| 2026-05-06 19:53 | 50.20230 | 14.05036 | 4018 ft | 215 kts | 127° |
| 2026-05-06 19:53 | 50.19328 | 14.06919 | 3935 ft | 221 kts | 127° |
| 2026-05-06 19:54 | 50.18395 | 14.08846 | 3647 ft | 219 kts | 127° |
| 2026-05-06 19:54 | 50.17502 | 14.10686 | 3356 ft | 204 kts | 126° |
| 2026-05-06 19:54 | 50.16645 | 14.12324 | 3020 ft | 189 kts | 129° |
| 2026-05-06 19:54 | 50.15856 | 14.13851 | 2710 ft | 176 kts | 125° |
| 2026-05-06 19:55 | 50.15377 | 14.14872 | 2500 ft | 169 kts | 123° |
| 2026-05-06 19:55 | 50.14717 | 14.16342 | 2257 ft | 161 kts | 123° |
| 2026-05-06 19:55 | 50.14085 | 14.17697 | 2043 ft | 150 kts | 126° |
| 2026-05-06 19:55 | 50.13471 | 14.18927 | 1912 ft | 133 kts | 126° |
| 2026-05-06 19:56 | 50.12914 | 14.20067 | 1821 ft | 135 kts | 123° |
| 2026-05-06 19:56 | 50.12359 | 14.21263 | 1722 ft | 137 kts | 124° |
| 2026-05-06 19:56 | 50.11777 | 14.22467 | 1535 ft | 139 kts | 125° |
| 2026-05-06 19:56 | 50.11203 | 14.23669 | 1361 ft | 138 kts | 124° |
| 2026-05-06 19:57 | 50.10643 | 14.24856 | 1172 ft | 132 kts | 125° |
| 2026-05-06 19:57 | 50.10160 | 14.25860 | 1187 ft | 96 kts | 127° |
| 2026-05-06 19:57 | 50.09867 | 14.26483 | 1203 ft | 32 kts | 111° |
| 2026-05-06 19:57 | 50.09878 | 14.26687 | 1206 ft | 18 kts | 82° |
| 2026-05-06 19:58 | 50.09892 | 14.26841 | 1205 ft | 11 kts | 82° |
| 2026-05-06 19:58 | 50.09903 | 14.26961 | 1205 ft | 11 kts | 81° |
| 2026-05-06 19:58 | 50.09913 | 14.27082 | 1202 ft | 12 kts | 87° |
| 2026-05-06 19:58 | 50.09940 | 14.27124 | 1199 ft | 4 kts | 346° |
| 2026-05-06 19:59 | 50.09966 | 14.27080 | 1197 ft | 7 kts | 307° |
| 2026-05-06 19:59 | 50.10004 | 14.27000 | 1195 ft | 12 kts | 306° |
| 2026-05-06 19:59 | 50.10065 | 14.26874 | 1189 ft | 17 kts | 308° |
| 2026-05-06 19:59 | 50.10146 | 14.26707 | 1176 ft | 21 kts | 306° |
| 2026-05-06 20:00 | 50.10235 | 14.26525 | 1176 ft | 21 kts | 307° |
| 2026-05-06 20:00 | 50.10326 | 14.26337 | 1175 ft | 21 kts | 306° |
| 2026-05-06 20:00 | 50.10407 | 14.26167 | 1171 ft | 19 kts | 307° |
| 2026-05-06 20:00 | 50.10480 | 14.26016 | 1175 ft | 16 kts | 308° |
| 2026-05-06 20:01 | 50.10573 | 14.26017 | 1169 ft | 14 kts | 31° |
| 2026-05-06 20:01 | 50.10657 | 14.26095 | 1169 ft | 14 kts | 31° |
| 2026-05-06 20:01 | 50.10731 | 14.26178 | 1170 ft | 13 kts | 36° |
| 2026-05-06 20:01 | 50.10807 | 14.26246 | 1170 ft | 12 kts | 7° |
| 2026-05-06 20:02 | 50.10868 | 14.26161 | 1172 ft | 12 kts | 304° |
| 2026-05-06 20:02 | 50.10872 | 14.26082 | 1169 ft | 6 kts | 231° |
| 2026-05-06 20:02 | 50.10851 | 14.26063 | 1171 ft | 2 kts | 185° |
| 2026-05-06 20:02 | 50.10840 | 14.26070 | 1172 ft | 2 kts | 154° |
| 2026-05-06 20:03 | 50.10831 | 14.26081 | 1169 ft | 2 kts | 137° |
| 2026-05-06 20:03 | 50.10823 | 14.26096 | 1171 ft | 2 kts | 126° |
| 2026-05-06 20:03 | 50.10816 | 14.26112 | 1171 ft | 2 kts | 124° |
| 2026-05-06 20:03 | 50.10809 | 14.26127 | 1172 ft | 2 kts | 124° |
| 2026-05-06 20:04 | 50.10805 | 14.26137 | 1171 ft | 0 kts | 124° |